Armorel, Arkansas
Current Conditions -  °F | °C
As of 12:53 PM on Tuesday 21 Oct 2014 (Local Time) from KHKA Reporting Station
Clear Clear  
Wind Chill: 25°   Ceiling: Unl
Heat Index: 26°   Visibility: 10mi
Dew Point:   Wind: 7mph
Humidity: 34%   Direction: 360°N
Pressure: 30.1"   Gusts: NA
Location:  35.92°N, 89.8°W
Report Text: KHKA 211753Z AUTO 36006KT 10SM CLR 25/08 A3010 RMK AO2 SLP189 T02500083 10250 20094 58006
Loading
Personal Weather Stations






























Interactive Weather Map
Tropical Storm Tracking
New forecast layout! Learn more

10-Day Weather Forecast

Advertisements
Track Severe Weather on mobile